.
WxDataArchive / Data Records for 2011-12-17
2011-12-16 December 2011 2011-12-18

Data Records for Saturday, 17 December 2011

Time	Temp	Chill	HIndex	Humid	Dewpt	 Wind 	HiWind	WindDir	Rain 	Barom 
-----	----	-----	------	-----	-----	------	------	-------	-----	----- 
00:00	32.1	32.1	32.1	69	23.1	1	3	315	0.00	30.324 
00:05	31.9	31.9	31.9	68	22.6	1	3	315	0.00	30.324 
00:10	31.9	31.9	31.9	68	22.6	1	3	315	0.00	30.324 
00:15	31.9	31.9	31.9	69	22.9	1	3	315	0.00	30.322 
00:20	31.9	31.9	31.9	69	22.9	1	2	315	0.00	30.322 
00:25	31.8	31.8	31.8	69	22.8	1	3	315	0.00	30.322 
00:30	31.8	31.8	31.8	70	23.2	0	1	315	0.00	30.316 
00:35	31.8	31.8	31.8	71	23.5	1	3	315	0.00	30.316 
00:40	31.6	31.6	31.6	71	23.3	0	2	315	0.00	30.316 
00:45	31.6	31.6	31.6	71	23.3	0	2	315	0.00	30.318 
00:50	31.6	31.6	31.6	72	23.6	1	2	315	0.00	30.318 
00:55	31.5	31.5	31.5	72	23.5	0	1	315	0.00	30.318 
01:00	31.5	31.5	31.5	72	23.5	0	2	315	0.00	30.317 
01:05	31.5	31.5	31.5	73	23.9	0	1	315	0.00	30.317 
01:10	31.5	31.5	31.5	73	23.9	0	1	315	0.00	30.317 
01:15	31.3	31.3	31.3	73	23.7	0	1	315	0.00	30.312 
01:20	31.3	31.3	31.3	73	23.7	0	2	315	0.00	30.312 
01:25	31.3	31.3	31.3	73	23.7	1	3	315	0.00	30.312 
01:30	31.2	31.2	31.2	73	23.6	0	2	315	0.00	30.313 
01:35	31.2	31.2	31.2	73	23.6	0	1	315	0.00	30.313 
01:40	31.2	31.2	31.2	73	23.6	1	3	315	0.00	30.313 
01:45	31.2	31.2	31.2	73	23.6	1	2	315	0.00	30.313 
01:50	31.0	31.0	31.0	73	23.4	1	3	315	0.00	30.313 
01:55	31.0	31.0	31.0	73	23.4	1	3	315	0.00	30.313 
02:00	31.0	31.0	31.0	73	23.4	0	2	315	0.00	30.317 
02:05	31.0	31.0	31.0	73	23.4	0	2	315	0.00	30.317 
02:10	31.0	31.0	31.0	73	23.4	0	2	315	0.00	30.317 
02:15	31.0	31.0	31.0	73	23.4	0	2	315	0.00	30.319 
02:20	31.0	31.0	31.0	73	23.4	0	2	315	0.00	30.319 
02:25	31.0	31.0	31.0	73	23.4	0	1	315	0.00	30.319 
02:30	30.9	30.9	30.9	73	23.3	0	1	315	0.00	30.315 
02:35	30.9	30.9	30.9	73	23.3	0	2	315	0.00	30.315 
02:40	30.9	30.9	30.9	73	23.3	0	0	---	0.00	30.315 
02:45	30.9	30.9	30.9	73	23.3	0	1	315	0.00	30.318 
02:50	30.9	30.9	30.9	73	23.3	0	2	315	0.00	30.318 
02:55	30.9	30.9	30.9	73	23.3	0	0	---	0.00	30.318 
03:00	30.9	30.9	30.9	73	23.3	0	1	315	0.00	30.314 
03:05	30.9	30.9	30.9	73	23.3	0	0	---	0.00	30.314 
03:10	30.7	30.7	30.7	73	23.1	0	1	315	0.00	30.314 
03:15	30.7	30.7	30.7	73	23.1	0	1	315	0.00	30.320 
03:20	30.7	30.7	30.7	73	23.1	0	1	315	0.00	30.320 
03:25	30.7	30.7	30.7	73	23.1	0	1	315	0.00	30.320 
03:30	30.7	30.7	30.7	73	23.1	0	2	315	0.00	30.325 
03:35	30.7	30.7	30.7	73	23.1	0	1	315	0.00	30.325 
03:40	30.7	30.7	30.7	73	23.1	0	2	315	0.00	30.325 
03:45	30.7	30.7	30.7	73	23.1	0	1	315	0.00	30.326 
03:50	30.7	30.7	30.7	73	23.1	0	1	315	0.00	30.326 
03:55	30.7	30.7	30.7	73	23.1	0	1	315	0.00	30.326 
04:00	30.7	30.7	30.7	73	23.1	0	1	315	0.00	30.316 
04:05	30.7	30.7	30.7	73	23.1	0	1	315	0.00	30.316 
04:10	30.7	30.7	30.7	73	23.1	0	2	315	0.00	30.316 
04:15	30.7	30.7	30.7	73	23.1	0	1	315	0.00	30.317 
04:20	30.7	30.7	30.7	73	23.1	0	2	315	0.00	30.317 
04:25	30.6	30.6	30.6	73	23.0	1	2	315	0.00	30.317 
04:30	30.7	30.7	30.7	73	23.1	0	1	315	0.00	30.322 
04:35	30.6	30.6	30.6	73	23.0	0	2	315	0.00	30.322 
04:40	30.6	30.6	30.6	73	23.0	0	1	315	0.00	30.322 
04:45	30.6	30.6	30.6	73	23.0	0	2	315	0.00	30.324 
04:50	30.6	30.6	30.6	74	23.3	0	1	315	0.00	30.324 
04:55	30.6	30.6	30.6	74	23.3	0	1	315	0.00	30.324 
05:00	30.6	30.6	30.6	74	23.3	0	1	315	0.00	30.323 
05:05	30.6	30.6	30.6	74	23.3	0	2	315	0.00	30.323 
05:10	30.6	30.6	30.6	74	23.3	0	1	315	0.00	30.323 
05:15	30.6	30.6	30.6	74	23.3	0	1	315	0.00	30.320 
05:20	30.6	30.6	30.6	74	23.3	0	1	315	0.00	30.320 
05:25	30.6	30.6	30.6	74	23.3	0	1	315	0.00	30.320 
05:30	30.6	30.6	30.6	74	23.3	0	1	315	0.00	30.318 
05:35	30.4	30.4	30.4	74	23.1	0	1	315	0.00	30.318 
05:40	30.4	30.4	30.4	74	23.1	0	1	315	0.00	30.318 
05:45	30.4	30.4	30.4	74	23.1	0	1	315	0.00	30.318 
05:50	30.4	30.4	30.4	74	23.1	0	1	315	0.00	30.318 
05:55	30.4	30.4	30.4	74	23.1	0	1	315	0.00	30.318 
06:00	30.3	30.3	30.3	74	23.0	0	0	---	0.00	30.310 
06:05	30.3	30.3	30.3	74	23.0	0	0	---	0.00	30.310 
06:10	30.3	30.3	30.3	75	23.3	0	0	---	0.00	30.310 
06:15	30.3	30.3	30.3	75	23.3	0	0	---	0.00	30.311 
06:20	30.1	30.1	30.1	75	23.2	0	1	315	0.00	30.311 
06:25	30.1	30.1	30.1	75	23.2	0	0	---	0.00	30.311 
06:30	30.1	30.1	30.1	76	23.5	0	1	315	0.00	30.314 
06:35	30.1	30.1	30.1	76	23.5	0	1	315	0.00	30.314 
06:40	30.0	30.0	30.0	76	23.4	0	1	315	0.00	30.314 
06:45	30.0	30.0	30.0	76	23.4	0	0	---	0.00	30.318 
06:50	30.0	30.0	30.0	77	23.7	0	0	---	0.00	30.318 
06:55	30.0	30.0	30.0	77	23.7	0	1	315	0.00	30.318 
07:00	30.0	30.0	30.0	77	23.7	0	3	315	0.00	30.319 
07:05	30.0	30.0	30.0	77	23.7	0	1	315	0.00	30.319 
07:10	30.0	30.0	30.0	77	23.7	0	0	---	0.00	30.319 
07:15	30.0	30.0	30.0	77	23.7	0	0	---	0.00	30.321 
07:20	30.0	30.0	30.0	78	24.0	0	1	315	0.00	30.321 
07:25	29.8	29.8	29.8	78	23.8	0	1	315	0.00	30.321 
07:30	29.8	29.8	29.8	78	23.8	0	0	---	0.00	30.318 
07:35	29.8	29.8	29.8	78	23.8	0	1	315	0.00	30.318 
07:40	29.8	29.8	29.8	78	23.8	0	1	315	0.00	30.318 
07:45	29.8	29.8	29.8	78	23.8	0	0	---	0.00	30.315 
07:50	29.8	29.8	29.8	79	24.1	0	1	315	0.00	30.315 
07:55	29.8	29.8	29.8	79	24.1	0	0	---	0.00	30.315 
08:00	29.7	29.7	29.7	80	24.3	0	3	248	0.00	30.318 
08:05	29.7	29.7	29.7	80	24.3	0	1	248	0.00	30.318 
08:10	29.5	29.5	29.5	81	24.4	0	0	---	0.00	30.318 
08:15	29.5	29.5	29.5	82	24.7	0	1	248	0.00	30.315 
08:20	29.4	29.4	29.4	82	24.6	0	1	248	0.00	30.315 
08:25	29.4	29.4	29.4	83	24.9	0	1	248	0.00	30.315 
08:30	29.3	29.3	29.3	84	25.1	0	1	248	0.00	30.313 
08:35	29.3	29.3	29.3	84	25.1	0	0	---	0.00	30.313 
08:40	29.3	29.3	29.3	85	25.4	0	0	---	0.00	30.313 
08:45	29.4	29.4	29.4	85	25.5	0	0	---	0.00	30.314 
08:50	29.4	29.4	29.4	86	25.7	0	1	248	0.00	30.314 
08:55	29.4	29.4	29.4	86	25.7	0	1	248	0.00	30.314 
09:00	29.4	29.4	29.4	86	25.7	0	1	248	0.00	30.315 
09:05	29.4	29.4	29.4	87	26.0	0	0	---	0.00	30.315 
09:10	29.4	29.4	29.4	87	26.0	0	1	248	0.00	30.315 
09:15	29.4	29.4	29.4	87	26.0	0	1	248	0.00	30.311 
09:20	29.4	29.4	29.4	88	26.3	0	1	248	0.00	30.311 
09:25	29.4	29.4	29.4	88	26.3	0	1	248	0.00	30.311 
09:30	29.5	29.5	29.5	88	26.4	0	2	248	0.00	30.310 
09:35	29.5	29.5	29.5	88	26.4	0	2	248	0.00	30.310 
09:40	29.5	29.5	29.5	88	26.4	0	1	248	0.00	30.310 
09:45	29.7	29.7	29.7	88	26.6	0	2	248	0.00	30.310 
09:50	29.7	29.7	29.7	88	26.6	0	1	248	0.00	30.310 
09:55	29.8	29.8	29.8	89	27.0	0	1	248	0.00	30.310 
10:00	30.0	30.0	30.0	89	27.2	0	2	248	0.00	30.309 
10:05	30.0	30.0	30.0	89	27.2	0	1	248	0.00	30.309 
10:10	29.8	29.8	29.8	89	27.0	1	3	248	0.00	30.309 
10:15	29.8	29.8	29.8	89	27.0	0	2	248	0.00	30.312 
10:20	30.0	30.0	30.0	88	26.9	0	2	248	0.00	30.312 
10:25	30.0	30.0	30.0	88	26.9	0	1	248	0.00	30.312 
10:30	30.0	30.0	30.0	88	26.9	1	3	248	0.00	30.312 
10:35	30.1	30.1	30.1	88	27.0	1	3	248	0.00	30.312 
10:40	30.1	30.1	30.1	88	27.0	0	2	248	0.00	30.312 
10:45	30.1	30.1	30.1	88	27.0	0	2	248	0.00	30.311 
10:50	30.1	30.1	30.1	88	27.0	1	2	248	0.00	30.311 
10:55	30.3	30.3	30.3	88	27.2	1	4	248	0.00	30.311 
11:00	30.3	30.3	30.3	87	26.9	1	4	270	0.00	30.310 
11:05	30.4	30.4	30.4	87	27.0	0	2	270	0.00	30.310 
11:10	30.4	30.4	30.4	87	27.0	1	3	270	0.00	30.310 
11:15	30.6	30.6	30.6	87	27.2	1	2	270	0.00	30.309 
11:20	30.4	30.4	30.4	87	27.0	1	3	270	0.00	30.309 
11:25	30.4	30.4	30.4	86	26.7	0	2	292	0.00	30.309 
11:30	30.6	30.6	30.6	86	26.9	0	1	292	0.00	30.306 
11:35	30.4	30.4	30.4	86	26.7	0	1	292	0.00	30.306 
11:40	30.4	30.4	30.4	86	26.7	0	1	292	0.00	30.306 
11:45	30.4	30.4	30.4	86	26.7	0	2	292	0.00	30.300 
11:50	30.6	30.6	30.6	86	26.9	0	2	292	0.00	30.300 
11:55	30.4	30.4	30.4	86	26.7	0	2	292	0.00	30.300 
12:00	30.6	30.6	30.6	86	26.9	0	2	292	0.00	30.294 
12:05	30.6	30.6	30.6	86	26.9	0	1	292	0.00	30.294 
12:10	30.6	30.6	30.6	86	26.9	0	1	292	0.00	30.294 
12:15	30.6	30.6	30.6	87	27.2	0	2	292	0.01	30.293 
12:20	30.6	30.6	30.6	87	27.2	0	2	292	0.00	30.293 
12:25	30.6	30.6	30.6	87	27.2	0	3	292	0.00	30.293 
12:30	30.6	30.6	30.6	87	27.2	1	4	270	0.00	30.282 
12:35	30.6	30.6	30.6	86	26.9	1	5	248	0.00	30.282 
12:40	30.6	30.6	30.6	86	26.9	1	3	248	0.00	30.282 
12:45	30.7	30.7	30.7	86	27.0	0	2	248	0.00	30.277 
12:50	30.9	30.9	30.9	86	27.2	1	3	248	0.01	30.277 
12:55	31.0	31.0	31.0	85	27.0	2	5	248	0.00	30.277 
13:00	31.0	31.0	31.0	85	27.0	1	4	248	0.00	30.269 
13:05	31.2	31.2	31.2	85	27.2	1	3	248	0.00	30.269 
13:10	31.0	31.0	31.0	85	27.0	1	3	248	0.00	30.269 
13:15	31.2	31.2	31.2	85	27.2	1	3	248	0.00	30.262 
13:20	31.0	31.0	31.0	85	27.0	1	4	248	0.00	30.262 
13:25	31.0	31.0	31.0	84	26.7	2	4	248	0.00	30.262 
13:30	30.9	30.9	30.9	84	26.6	1	5	248	0.00	30.261 
13:35	31.0	31.0	31.0	84	26.7	1	5	248	0.00	30.261 
13:40	31.0	31.0	31.0	84	26.7	1	4	248	0.01	30.261 
13:45	31.2	31.2	31.2	84	26.9	1	3	248	0.00	30.254 
13:50	31.3	31.3	31.3	85	27.3	1	3	248	0.00	30.254 
13:55	31.5	31.5	31.5	85	27.5	1	3	248	0.00	30.254 
14:00	31.5	31.5	31.5	85	27.5	1	3	248	0.00	30.248 
14:05	31.5	31.5	31.5	84	27.2	1	3	248	0.00	30.248 
14:10	31.5	31.5	31.5	84	27.2	0	3	248	0.00	30.248 
14:15	31.5	31.5	31.5	84	27.2	1	3	248	0.00	30.250 
14:20	31.5	31.5	31.5	84	27.2	1	4	248	0.00	30.250 
14:25	31.5	31.5	31.5	84	27.2	1	3	270	0.00	30.250 
14:30	31.3	31.3	31.3	84	27.0	1	4	270	0.00	30.247 
14:35	31.5	31.5	31.5	84	27.2	1	4	270	0.00	30.247 
14:40	31.5	31.5	31.5	84	27.2	1	5	225	0.00	30.247 
14:45	31.5	31.5	31.5	83	26.9	1	7	248	0.00	30.245 
14:50	31.6	31.6	31.6	83	27.0	0	2	248	0.00	30.245 
14:55	31.6	31.6	31.6	82	26.7	1	3	270	0.00	30.245 
15:00	31.8	31.8	31.8	82	26.9	1	3	248	0.00	30.240 
15:05	31.6	31.6	31.6	81	26.5	1	3	248	0.00	30.240 
15:10	31.6	31.6	31.6	81	26.5	1	3	248	0.00	30.240 
15:15	31.6	31.6	31.6	81	26.5	1	4	248	0.00	30.233 
15:20	31.6	31.6	31.6	81	26.5	1	3	248	0.00	30.233 
15:25	31.6	31.6	31.6	81	26.5	0	1	248	0.00	30.233 
15:30	31.6	31.6	31.6	81	26.5	1	2	248	0.00	30.233 
15:35	31.6	31.6	31.6	81	26.5	0	2	248	0.00	30.233 
15:40	31.6	31.6	31.6	81	26.5	0	2	248	0.00	30.233 
15:45	31.6	31.6	31.6	81	26.5	0	1	248	0.00	30.232 
15:50	31.6	31.6	31.6	81	26.5	1	3	248	0.00	30.232 
15:55	31.5	31.5	31.5	80	26.1	0	3	248	0.00	30.232 
16:00	31.5	31.5	31.5	80	26.1	1	3	248	0.00	30.231 
16:05	31.5	31.5	31.5	80	26.1	0	1	248	0.00	30.231 
16:10	31.3	31.3	31.3	79	25.6	0	2	248	0.00	30.231 
16:15	31.3	31.3	31.3	79	25.6	0	2	248	0.00	30.231 
16:20	31.2	31.2	31.2	79	25.5	1	2	248	0.00	30.231 
16:25	31.2	31.2	31.2	79	25.5	1	4	248	0.00	30.231 
16:30	31.2	31.2	31.2	79	25.5	0	2	248	0.00	30.230 
16:35	31.2	31.2	31.2	80	25.8	0	1	248	0.00	30.230 
16:40	31.2	31.2	31.2	80	25.8	0	1	248	0.00	30.230 
16:45	31.2	31.2	31.2	81	26.1	0	1	248	0.00	30.229 
16:50	31.2	31.2	31.2	81	26.1	0	1	248	0.00	30.229 
16:55	31.0	31.0	31.0	81	25.9	0	1	248	0.00	30.229 
17:00	31.0	31.0	31.0	81	25.9	0	1	248	0.00	30.226 
17:05	31.0	31.0	31.0	82	26.2	0	1	248	0.00	30.226 
17:10	30.9	30.9	30.9	82	26.1	1	3	248	0.00	30.226 
17:15	30.9	30.9	30.9	82	26.1	0	2	248	0.00	30.230 
17:20	30.9	30.9	30.9	82	26.1	0	1	248	0.00	30.230 
17:25	30.9	30.9	30.9	83	26.4	0	1	248	0.01	30.230 
17:30	30.9	30.9	30.9	83	26.4	0	1	248	0.00	30.232 
17:35	30.9	30.9	30.9	83	26.4	0	1	248	0.00	30.232 
17:40	30.9	30.9	30.9	83	26.4	0	2	248	0.00	30.232 
17:45	30.9	30.9	30.9	83	26.4	0	1	248	0.00	30.234 
17:50	30.9	30.9	30.9	84	26.6	0	1	248	0.00	30.234 
17:55	30.9	30.9	30.9	84	26.6	0	1	248	0.00	30.234 
18:00	30.9	30.9	30.9	84	26.6	0	1	248	0.00	30.234 
18:05	30.7	30.7	30.7	83	26.2	0	2	248	0.00	30.234 
18:10	30.7	30.7	30.7	83	26.2	1	3	248	0.00	30.234 
18:15	30.7	30.7	30.7	82	25.9	0	2	248	0.00	30.237 
18:20	30.7	30.7	30.7	81	25.6	1	4	270	0.00	30.237 
18:25	30.7	30.7	30.7	80	25.3	1	4	248	0.00	30.237 
18:30	30.7	30.7	30.7	80	25.3	0	2	248	0.00	30.233 
18:35	30.7	30.7	30.7	80	25.3	0	2	248	0.00	30.233 
18:40	30.7	30.7	30.7	80	25.3	1	3	248	0.00	30.233 
18:45	30.7	30.7	30.7	80	25.3	0	2	248	0.00	30.231 
18:50	30.7	30.7	30.7	80	25.3	1	3	248	0.00	30.231 
18:55	30.7	30.7	30.7	80	25.3	1	4	248	0.00	30.231 
19:00	30.7	30.7	30.7	79	25.0	1	2	248	0.00	30.235 
19:05	30.7	30.7	30.7	79	25.0	1	4	248	0.00	30.235 
19:10	30.7	30.7	30.7	79	25.0	1	4	248	0.00	30.235 
19:15	30.7	30.7	30.7	79	25.0	1	3	248	0.00	30.245 
19:20	30.7	30.7	30.7	79	25.0	1	3	248	0.00	30.245 
19:25	30.7	30.7	30.7	80	25.3	0	3	248	0.00	30.245 
19:30	30.7	30.7	30.7	80	25.3	0	2	248	0.00	30.238 
19:35	30.7	30.7	30.7	80	25.3	0	2	248	0.00	30.238 
19:40	30.7	30.7	30.7	80	25.3	1	4	248	0.00	30.238 
19:45	30.7	30.7	30.7	80	25.3	0	3	248	0.00	30.232 
19:50	30.6	30.6	30.6	80	25.2	0	2	248	0.00	30.232 
19:55	30.6	30.6	30.6	81	25.5	0	1	248	0.00	30.232 
20:00	30.6	30.6	30.6	81	25.5	0	1	248	0.00	30.232 
20:05	30.6	30.6	30.6	81	25.5	0	2	248	0.00	30.232 
20:10	30.6	30.6	30.6	81	25.5	0	3	248	0.00	30.232 
20:15	30.6	30.6	30.6	81	25.5	0	1	248	0.00	30.230 
20:20	30.6	30.6	30.6	81	25.5	0	1	248	0.00	30.230 
20:25	30.6	30.6	30.6	81	25.5	0	2	248	0.00	30.230 
20:30	30.6	30.6	30.6	81	25.5	0	2	248	0.00	30.232 
20:35	30.6	30.6	30.6	81	25.5	0	1	248	0.00	30.232 
20:40	30.6	30.6	30.6	81	25.5	0	0	---	0.00	30.232 
20:45	30.6	30.6	30.6	81	25.5	0	2	248	0.00	30.230 
20:50	30.6	30.6	30.6	81	25.5	0	0	---	0.00	30.230 
20:55	30.6	30.6	30.6	81	25.5	0	1	248	0.00	30.230 
21:00	30.6	30.6	30.6	81	25.5	0	0	---	0.00	30.222 
21:05	30.6	30.6	30.6	82	25.8	0	1	248	0.00	30.222 
21:10	30.6	30.6	30.6	82	25.8	0	0	---	0.00	30.222 
21:15	30.7	30.7	30.7	82	25.9	0	0	---	0.00	30.218 
21:20	30.7	30.7	30.7	82	25.9	0	1	248	0.00	30.218 
21:25	30.7	30.7	30.7	82	25.9	0	1	248	0.00	30.218 
21:30	30.7	30.7	30.7	82	25.9	0	1	248	0.00	30.215 
21:35	30.7	30.7	30.7	83	26.2	0	1	248	0.00	30.215 
21:40	30.7	30.7	30.7	83	26.2	0	2	248	0.00	30.215 
21:45	30.7	30.7	30.7	83	26.2	0	1	248	0.00	30.207 
21:50	30.7	30.7	30.7	83	26.2	0	0	---	0.00	30.207 
21:55	30.7	30.7	30.7	83	26.2	0	1	248	0.00	30.207 
22:00	30.7	30.7	30.7	83	26.2	0	0	---	0.00	30.213 
22:05	30.7	30.7	30.7	83	26.2	0	2	248	0.00	30.213 
22:10	30.9	30.9	30.9	83	26.4	0	1	248	0.00	30.213 
22:15	30.9	30.9	30.9	83	26.4	0	1	248	0.00	30.211 
22:20	30.9	30.9	30.9	83	26.4	0	2	248	0.00	30.211 
22:25	30.9	30.9	30.9	83	26.4	0	2	248	0.00	30.211 
22:30	30.9	30.9	30.9	83	26.4	0	2	248	0.00	30.214 
22:35	31.0	31.0	31.0	83	26.5	0	2	248	0.00	30.214 
22:40	31.0	31.0	31.0	83	26.5	0	2	248	0.00	30.214 
22:45	31.0	31.0	31.0	83	26.5	0	1	248	0.00	30.209 
22:50	31.0	31.0	31.0	83	26.5	0	2	248	0.00	30.209 
22:55	31.0	31.0	31.0	83	26.5	0	2	248	0.00	30.209 
23:00	31.2	31.2	31.2	83	26.6	0	2	248	0.00	30.212 
23:05	31.2	31.2	31.2	83	26.6	0	2	248	0.00	30.212 
23:10	31.2	31.2	31.2	84	26.9	0	1	248	0.00	30.212 
23:15	31.2	31.2	31.2	84	26.9	0	2	248	0.00	30.211 
23:20	31.2	31.2	31.2	84	26.9	0	1	248	0.00	30.211 
23:25	31.3	31.3	31.3	84	27.0	1	3	248	0.00	30.211 
23:30	31.3	31.3	31.3	84	27.0	1	3	248	0.00	30.211 
23:35	31.5	31.5	31.5	84	27.2	1	5	248	0.00	30.211 
23:40	31.5	31.5	31.5	84	27.2	1	4	248	0.00	30.211 
23:45	31.6	31.6	31.6	84	27.3	1	4	248	0.00	30.215 
23:50	31.6	31.6	31.6	84	27.3	1	3	248	0.00	30.215 
23:55	31.6	31.6	31.6	83	27.0	0	2	270	0.00	30.215 

CoCoRaHS
IN-AL-39
A2 Web Hosting
Creative Commons License
GoDaddy
search engine by freefind advanced

loaded 2018-11-22 05:22:13 • last modified 2010-11-18 10:43:29
Privacy PolicyDisclaimer
• wx.awcolley.com is powered by PmWiki v.2002016 •
• all content (unless otherwise noted) © 2018 A W Colley